sensor_id;sensor_type;location;lat;lon;timestamp;P1;durP1;ratioP1;P2;durP2;ratioP2
53931;SDS011;39844;52.496;13.482;2022-07-23T00:01:27;2.90;;;2.70;;
53931;SDS011;39844;52.496;13.482;2022-07-23T00:03:53;4.55;;;2.83;;
53931;SDS011;39844;52.496;13.482;2022-07-23T00:06:20;3.40;;;2.57;;
53931;SDS011;39844;52.496;13.482;2022-07-23T00:08:46;3.50;;;3.20;;
53931;SDS011;39844;52.496;13.482;2022-07-23T00:11:11;3.57;;;2.87;;
53931;SDS011;39844;52.496;13.482;2022-07-23T00:13:37;3.07;;;2.87;;
53931;SDS011;39844;52.496;13.482;2022-07-23T00:16:02;2.57;;;2.37;;
53931;SDS011;39844;52.496;13.482;2022-07-23T00:18:28;3.47;;;2.73;;
53931;SDS011;39844;52.496;13.482;2022-07-23T00:20:53;4.40;;;2.87;;
53931;SDS011;39844;52.496;13.482;2022-07-23T00:23:18;3.10;;;2.80;;
53931;SDS011;39844;52.496;13.482;2022-07-23T00:25:44;2.83;;;2.30;;
53931;SDS011;39844;52.496;13.482;2022-07-23T00:28:10;2.70;;;2.50;;
53931;SDS011;39844;52.496;13.482;2022-07-23T00:30:36;2.37;;;2.17;;
53931;SDS011;39844;52.496;13.482;2022-07-23T00:33:03;3.57;;;2.40;;
53931;SDS011;39844;52.496;13.482;2022-07-23T00:35:31;3.03;;;2.83;;
53931;SDS011;39844;52.496;13.482;2022-07-23T00:37:59;3.30;;;2.87;;
53931;SDS011;39844;52.496;13.482;2022-07-23T00:40:26;4.60;;;2.63;;
53931;SDS011;39844;52.496;13.482;2022-07-23T00:42:53;4.00;;;2.40;;
53931;SDS011;39844;52.496;13.482;2022-07-23T00:45:18;2.37;;;2.27;;
53931;SDS011;39844;52.496;13.482;2022-07-23T00:47:44;5.47;;;2.70;;
53931;SDS011;39844;52.496;13.482;2022-07-23T00:50:10;2.97;;;2.60;;
53931;SDS011;39844;52.496;13.482;2022-07-23T00:52:35;4.60;;;2.53;;
53931;SDS011;39844;52.496;13.482;2022-07-23T00:55:02;2.60;;;2.40;;
53931;SDS011;39844;52.496;13.482;2022-07-23T00:57:29;4.30;;;2.87;;
53931;SDS011;39844;52.496;13.482;2022-07-23T00:59:55;3.40;;;2.40;;
53931;SDS011;39844;52.496;13.482;2022-07-23T01:02:21;3.27;;;2.57;;
53931;SDS011;39844;52.496;13.482;2022-07-23T01:04:46;2.40;;;2.20;;
53931;SDS011;39844;52.496;13.482;2022-07-23T01:07:12;2.77;;;2.57;;
53931;SDS011;39844;52.496;13.482;2022-07-23T01:09:37;2.90;;;2.70;;
53931;SDS011;39844;52.496;13.482;2022-07-23T01:12:03;5.97;;;2.77;;
53931;SDS011;39844;52.496;13.482;2022-07-23T01:14:29;4.33;;;2.70;;
53931;SDS011;39844;52.496;13.482;2022-07-23T01:16:54;3.03;;;2.83;;
53931;SDS011;39844;52.496;13.482;2022-07-23T01:19:19;2.60;;;2.40;;
53931;SDS011;39844;52.496;13.482;2022-07-23T01:21:49;2.50;;;2.30;;
53931;SDS011;39844;52.496;13.482;2022-07-23T01:24:16;2.37;;;2.23;;
53931;SDS011;39844;52.496;13.482;2022-07-23T01:26:44;3.90;;;2.63;;
53931;SDS011;39844;52.496;13.482;2022-07-23T01:29:10;3.00;;;2.80;;
53931;SDS011;39844;52.496;13.482;2022-07-23T01:31:36;6.10;;;2.80;;
53931;SDS011;39844;52.496;13.482;2022-07-23T01:34:01;2.97;;;2.57;;
53931;SDS011;39844;52.496;13.482;2022-07-23T01:36:27;3.50;;;2.67;;
53931;SDS011;39844;52.496;13.482;2022-07-23T01:38:53;2.57;;;2.37;;
53931;SDS011;39844;52.496;13.482;2022-07-23T01:41:18;2.53;;;2.33;;
53931;SDS011;39844;52.496;13.482;2022-07-23T01:43:44;3.33;;;2.60;;
53931;SDS011;39844;52.496;13.482;2022-07-23T01:46:09;3.07;;;2.80;;
53931;SDS011;39844;52.496;13.482;2022-07-23T01:48:35;2.73;;;2.53;;
53931;SDS011;39844;52.496;13.482;2022-07-23T01:51:00;2.60;;;2.40;;
53931;SDS011;39844;52.496;13.482;2022-07-23T01:53:26;3.30;;;2.70;;
53931;SDS011;39844;52.496;13.482;2022-07-23T01:55:51;2.33;;;2.23;;
53931;SDS011;39844;52.496;13.482;2022-07-23T01:58:18;4.27;;;2.60;;
53931;SDS011;39844;52.496;13.482;2022-07-23T02:00:43;4.47;;;2.53;;
53931;SDS011;39844;52.496;13.482;2022-07-23T02:03:08;3.40;;;2.80;;
53931;SDS011;39844;52.496;13.482;2022-07-23T02:05:34;2.67;;;2.47;;
53931;SDS011;39844;52.496;13.482;2022-07-23T02:07:59;2.60;;;2.50;;
53931;SDS011;39844;52.496;13.482;2022-07-23T02:10:25;3.77;;;3.00;;
53931;SDS011;39844;52.496;13.482;2022-07-23T02:12:51;3.03;;;2.77;;
53931;SDS011;39844;52.496;13.482;2022-07-23T02:15:17;3.00;;;2.80;;
53931;SDS011;39844;52.496;13.482;2022-07-23T02:17:42;2.50;;;2.30;;
53931;SDS011;39844;52.496;13.482;2022-07-23T02:20:09;2.10;;;2.00;;
53931;SDS011;39844;52.496;13.482;2022-07-23T02:22:35;2.47;;;2.33;;
53931;SDS011;39844;52.496;13.482;2022-07-23T02:25:01;3.03;;;2.73;;
53931;SDS011;39844;52.496;13.482;2022-07-23T02:27:27;2.87;;;2.67;;
53931;SDS011;39844;52.496;13.482;2022-07-23T02:29:53;2.53;;;2.33;;
53931;SDS011;39844;52.496;13.482;2022-07-23T02:32:18;2.83;;;2.20;;
53931;SDS011;39844;52.496;13.482;2022-07-23T02:34:46;2.50;;;2.30;;
53931;SDS011;39844;52.496;13.482;2022-07-23T02:37:11;3.10;;;2.60;;
53931;SDS011;39844;52.496;13.482;2022-07-23T02:39:36;2.90;;;2.60;;
53931;SDS011;39844;52.496;13.482;2022-07-23T02:42:01;2.30;;;2.20;;
53931;SDS011;39844;52.496;13.482;2022-07-23T02:44:27;2.40;;;2.20;;
53931;SDS011;39844;52.496;13.482;2022-07-23T02:46:52;2.73;;;2.17;;
53931;SDS011;39844;52.496;13.482;2022-07-23T02:49:17;2.97;;;2.60;;
53931;SDS011;39844;52.496;13.482;2022-07-23T02:51:43;3.73;;;2.90;;
53931;SDS011;39844;52.496;13.482;2022-07-23T02:54:08;2.83;;;2.63;;
53931;SDS011;39844;52.496;13.482;2022-07-23T02:56:33;2.60;;;2.40;;
53931;SDS011;39844;52.496;13.482;2022-07-23T02:58:59;2.20;;;2.10;;
53931;SDS011;39844;52.496;13.482;2022-07-23T03:01:24;3.23;;;2.93;;
53931;SDS011;39844;52.496;13.482;2022-07-23T03:03:49;4.67;;;2.60;;
53931;SDS011;39844;52.496;13.482;2022-07-23T03:06:15;3.23;;;2.23;;
53931;SDS011;39844;52.496;13.482;2022-07-23T03:08:40;2.97;;;2.63;;
53931;SDS011;39844;52.496;13.482;2022-07-23T03:11:05;4.33;;;2.70;;
53931;SDS011;39844;52.496;13.482;2022-07-23T03:13:35;2.63;;;2.43;;
53931;SDS011;39844;52.496;13.482;2022-07-23T03:16:04;2.60;;;2.40;;
53931;SDS011;39844;52.496;13.482;2022-07-23T03:18:29;4.57;;;2.63;;
53931;SDS011;39844;52.496;13.482;2022-07-23T03:20:55;2.57;;;2.40;;
53931;SDS011;39844;52.496;13.482;2022-07-23T03:23:21;2.80;;;2.60;;
53931;SDS011;39844;52.496;13.482;2022-07-23T03:25:46;3.80;;;2.97;;
53931;SDS011;39844;52.496;13.482;2022-07-23T03:28:13;4.67;;;2.90;;
53931;SDS011;39844;52.496;13.482;2022-07-23T03:30:40;5.10;;;2.37;;
53931;SDS011;39844;52.496;13.482;2022-07-23T03:33:06;2.10;;;2.00;;
53931;SDS011;39844;52.496;13.482;2022-07-23T03:35:31;2.70;;;2.50;;
53931;SDS011;39844;52.496;13.482;2022-07-23T03:37:57;2.97;;;2.70;;
53931;SDS011;39844;52.496;13.482;2022-07-23T03:40:22;3.33;;;3.03;;
53931;SDS011;39844;52.496;13.482;2022-07-23T03:42:47;6.20;;;2.73;;
53931;SDS011;39844;52.496;13.482;2022-07-23T03:45:12;3.83;;;2.63;;
53931;SDS011;39844;52.496;13.482;2022-07-23T03:47:38;2.80;;;2.60;;
53931;SDS011;39844;52.496;13.482;2022-07-23T03:50:04;3.23;;;2.83;;
53931;SDS011;39844;52.496;13.482;2022-07-23T03:52:30;3.63;;;2.53;;
53931;SDS011;39844;52.496;13.482;2022-07-23T03:54:55;2.60;;;2.40;;
53931;SDS011;39844;52.496;13.482;2022-07-23T03:57:20;4.70;;;2.83;;
53931;SDS011;39844;52.496;13.482;2022-07-23T03:59:46;3.87;;;2.73;;
53931;SDS011;39844;52.496;13.482;2022-07-23T04:02:11;2.57;;;2.37;;
53931;SDS011;39844;52.496;13.482;2022-07-23T04:04:36;3.20;;;2.33;;
53931;SDS011;39844;52.496;13.482;2022-07-23T04:07:02;2.60;;;2.40;;
53931;SDS011;39844;52.496;13.482;2022-07-23T04:09:27;2.30;;;2.10;;
53931;SDS011;39844;52.496;13.482;2022-07-23T04:11:52;2.70;;;2.50;;
53931;SDS011;39844;52.496;13.482;2022-07-23T04:14:18;3.73;;;2.27;;
53931;SDS011;39844;52.496;13.482;2022-07-23T04:16:43;2.70;;;2.07;;
53931;SDS011;39844;52.496;13.482;2022-07-23T04:19:08;3.27;;;2.60;;
53931;SDS011;39844;52.496;13.482;2022-07-23T04:21:34;1.83;;;1.73;;
53931;SDS011;39844;52.496;13.482;2022-07-23T04:23:59;2.87;;;2.23;;
53931;SDS011;39844;52.496;13.482;2022-07-23T04:26:24;2.77;;;1.93;;
53931;SDS011;39844;52.496;13.482;2022-07-23T04:28:50;5.03;;;1.87;;
53931;SDS011;39844;52.496;13.482;2022-07-23T04:31:15;2.33;;;2.13;;
53931;SDS011;39844;52.496;13.482;2022-07-23T04:33:40;1.83;;;1.67;;
53931;SDS011;39844;52.496;13.482;2022-07-23T04:36:06;1.70;;;1.60;;
53931;SDS011;39844;52.496;13.482;2022-07-23T04:38:31;1.70;;;1.60;;
53931;SDS011;39844;52.496;13.482;2022-07-23T04:40:57;2.10;;;1.70;;
53931;SDS011;39844;52.496;13.482;2022-07-23T04:43:23;1.90;;;1.53;;
53931;SDS011;39844;52.496;13.482;2022-07-23T04:45:48;1.77;;;1.53;;
53931;SDS011;39844;52.496;13.482;2022-07-23T04:48:13;3.43;;;1.83;;
53931;SDS011;39844;52.496;13.482;2022-07-23T04:50:39;2.57;;;1.70;;
53931;SDS011;39844;52.496;13.482;2022-07-23T04:53:04;1.63;;;1.50;;
53931;SDS011;39844;52.496;13.482;2022-07-23T04:55:30;3.17;;;1.47;;
53931;SDS011;39844;52.496;13.482;2022-07-23T04:57:55;5.00;;;1.80;;
53931;SDS011;39844;52.496;13.482;2022-07-23T05:00:20;3.93;;;1.43;;
53931;SDS011;39844;52.496;13.482;2022-07-23T05:02:46;1.67;;;1.57;;
53931;SDS011;39844;52.496;13.482;2022-07-23T05:05:11;2.27;;;1.70;;
53931;SDS011;39844;52.496;13.482;2022-07-23T05:07:36;3.43;;;1.67;;
53931;SDS011;39844;52.496;13.482;2022-07-23T05:10:02;2.07;;;1.60;;
53931;SDS011;39844;52.496;13.482;2022-07-23T05:12:27;1.70;;;1.60;;
53931;SDS011;39844;52.496;13.482;2022-07-23T05:14:53;4.13;;;1.73;;
53931;SDS011;39844;52.496;13.482;2022-07-23T05:17:18;1.60;;;1.50;;
53931;SDS011;39844;52.496;13.482;2022-07-23T05:19:43;2.77;;;2.03;;
53931;SDS011;39844;52.496;13.482;2022-07-23T05:22:09;1.93;;;1.60;;
53931;SDS011;39844;52.496;13.482;2022-07-23T05:24:34;2.70;;;1.70;;
53931;SDS011;39844;52.496;13.482;2022-07-23T05:26:59;1.90;;;1.70;;
53931;SDS011;39844;52.496;13.482;2022-07-23T05:29:24;1.63;;;1.43;;
53931;SDS011;39844;52.496;13.482;2022-07-23T05:31:50;1.50;;;1.50;;
53931;SDS011;39844;52.496;13.482;2022-07-23T05:34:15;1.80;;;1.70;;
53931;SDS011;39844;52.496;13.482;2022-07-23T05:36:40;1.80;;;1.70;;
53931;SDS011;39844;52.496;13.482;2022-07-23T05:39:06;2.00;;;1.80;;
53931;SDS011;39844;52.496;13.482;2022-07-23T05:41:31;4.07;;;1.87;;
53931;SDS011;39844;52.496;13.482;2022-07-23T05:43:56;3.43;;;1.50;;
53931;SDS011;39844;52.496;13.482;2022-07-23T05:46:21;1.70;;;1.60;;
53931;SDS011;39844;52.496;13.482;2022-07-23T05:48:47;2.30;;;1.80;;
53931;SDS011;39844;52.496;13.482;2022-07-23T05:51:19;2.87;;;1.90;;
53931;SDS011;39844;52.496;13.482;2022-07-23T05:53:45;2.17;;;1.97;;
53931;SDS011;39844;52.496;13.482;2022-07-23T05:56:10;2.00;;;1.77;;
53931;SDS011;39844;52.496;13.482;2022-07-23T05:58:35;2.43;;;1.53;;
53931;SDS011;39844;52.496;13.482;2022-07-23T06:01:01;1.47;;;1.40;;
53931;SDS011;39844;52.496;13.482;2022-07-23T06:03:26;1.63;;;1.50;;
53931;SDS011;39844;52.496;13.482;2022-07-23T06:05:51;1.63;;;1.53;;
53931;SDS011;39844;52.496;13.482;2022-07-23T06:08:16;3.90;;;1.83;;
53931;SDS011;39844;52.496;13.482;2022-07-23T06:10:42;1.47;;;1.37;;
53931;SDS011;39844;52.496;13.482;2022-07-23T06:13:07;1.63;;;1.53;;
53931;SDS011;39844;52.496;13.482;2022-07-23T06:15:32;1.93;;;1.70;;
53931;SDS011;39844;52.496;13.482;2022-07-23T06:17:58;4.83;;;1.67;;
53931;SDS011;39844;52.496;13.482;2022-07-23T06:20:23;2.20;;;1.80;;
53931;SDS011;39844;52.496;13.482;2022-07-23T06:22:48;2.37;;;1.70;;
53931;SDS011;39844;52.496;13.482;2022-07-23T06:25:13;1.40;;;1.40;;
53931;SDS011;39844;52.496;13.482;2022-07-23T06:27:41;1.70;;;1.60;;
53931;SDS011;39844;52.496;13.482;2022-07-23T06:30:07;2.50;;;1.70;;
53931;SDS011;39844;52.496;13.482;2022-07-23T06:32:33;2.60;;;1.43;;
53931;SDS011;39844;52.496;13.482;2022-07-23T06:34:58;1.60;;;1.50;;
53931;SDS011;39844;52.496;13.482;2022-07-23T06:37:23;2.20;;;1.50;;
53931;SDS011;39844;52.496;13.482;2022-07-23T06:39:49;3.10;;;1.53;;
53931;SDS011;39844;52.496;13.482;2022-07-23T06:42:14;5.03;;;1.60;;
53931;SDS011;39844;52.496;13.482;2022-07-23T06:44:40;3.07;;;1.77;;
53931;SDS011;39844;52.496;13.482;2022-07-23T06:47:05;2.90;;;1.67;;
53931;SDS011;39844;52.496;13.482;2022-07-23T06:49:30;1.87;;;1.77;;
53931;SDS011;39844;52.496;13.482;2022-07-23T06:51:56;1.80;;;1.70;;
53931;SDS011;39844;52.496;13.482;2022-07-23T06:54:21;4.97;;;1.67;;
53931;SDS011;39844;52.496;13.482;2022-07-23T06:56:46;1.50;;;1.40;;
53931;SDS011;39844;52.496;13.482;2022-07-23T06:59:12;2.07;;;1.53;;
53931;SDS011;39844;52.496;13.482;2022-07-23T07:01:37;4.40;;;1.73;;
53931;SDS011;39844;52.496;13.482;2022-07-23T07:04:02;2.30;;;2.07;;
53931;SDS011;39844;52.496;13.482;2022-07-23T07:06:28;3.27;;;1.57;;
53931;SDS011;39844;52.496;13.482;2022-07-23T07:08:54;4.30;;;1.80;;
53931;SDS011;39844;52.496;13.482;2022-07-23T07:11:20;2.00;;;1.90;;
53931;SDS011;39844;52.496;13.482;2022-07-23T07:13:46;1.70;;;1.60;;
53931;SDS011;39844;52.496;13.482;2022-07-23T07:16:11;5.90;;;2.13;;
53931;SDS011;39844;52.496;13.482;2022-07-23T07:18:36;3.07;;;1.80;;
53931;SDS011;39844;52.496;13.482;2022-07-23T07:21:02;2.10;;;2.00;;
53931;SDS011;39844;52.496;13.482;2022-07-23T07:23:27;2.93;;;1.40;;
53931;SDS011;39844;52.496;13.482;2022-07-23T07:25:52;1.33;;;1.30;;
53931;SDS011;39844;52.496;13.482;2022-07-23T07:28:18;1.77;;;1.60;;
53931;SDS011;39844;52.496;13.482;2022-07-23T07:30:43;1.70;;;1.60;;
53931;SDS011;39844;52.496;13.482;2022-07-23T07:33:08;2.23;;;1.70;;
53931;SDS011;39844;52.496;13.482;2022-07-23T07:35:33;1.40;;;1.30;;
53931;SDS011;39844;52.496;13.482;2022-07-23T07:37:59;2.10;;;1.70;;
53931;SDS011;39844;52.496;13.482;2022-07-23T07:40:25;1.50;;;1.30;;
53931;SDS011;39844;52.496;13.482;2022-07-23T07:42:51;2.50;;;1.50;;
53931;SDS011;39844;52.496;13.482;2022-07-23T07:45:21;2.43;;;1.83;;
53931;SDS011;39844;52.496;13.482;2022-07-23T07:47:46;2.10;;;1.63;;
53931;SDS011;39844;52.496;13.482;2022-07-23T07:50:12;1.50;;;1.40;;
53931;SDS011;39844;52.496;13.482;2022-07-23T07:52:38;1.17;;;1.17;;
53931;SDS011;39844;52.496;13.482;2022-07-23T07:55:04;1.50;;;1.50;;
53931;SDS011;39844;52.496;13.482;2022-07-23T07:57:30;2.43;;;1.73;;
53931;SDS011;39844;52.496;13.482;2022-07-23T07:59:56;4.57;;;1.60;;
53931;SDS011;39844;52.496;13.482;2022-07-23T08:02:21;1.50;;;1.40;;
53931;SDS011;39844;52.496;13.482;2022-07-23T08:04:46;1.60;;;1.50;;
53931;SDS011;39844;52.496;13.482;2022-07-23T08:07:13;4.87;;;1.80;;
53931;SDS011;39844;52.496;13.482;2022-07-23T08:09:39;1.70;;;1.60;;
53931;SDS011;39844;52.496;13.482;2022-07-23T08:12:04;1.60;;;1.57;;
53931;SDS011;39844;52.496;13.482;2022-07-23T08:14:30;3.60;;;2.07;;
53931;SDS011;39844;52.496;13.482;2022-07-23T08:16:55;1.77;;;1.60;;
53931;SDS011;39844;52.496;13.482;2022-07-23T08:19:20;2.13;;;1.97;;
53931;SDS011;39844;52.496;13.482;2022-07-23T08:21:46;5.07;;;2.30;;
53931;SDS011;39844;52.496;13.482;2022-07-23T08:24:11;3.57;;;2.37;;
53931;SDS011;39844;52.496;13.482;2022-07-23T08:26:36;3.47;;;1.97;;
53931;SDS011;39844;52.496;13.482;2022-07-23T08:29:02;2.53;;;1.90;;
53931;SDS011;39844;52.496;13.482;2022-07-23T08:31:27;3.43;;;1.90;;
53931;SDS011;39844;52.496;13.482;2022-07-23T08:33:52;3.63;;;1.97;;
53931;SDS011;39844;52.496;13.482;2022-07-23T08:36:18;3.07;;;2.40;;
53931;SDS011;39844;52.496;13.482;2022-07-23T08:38:43;2.17;;;1.97;;
53931;SDS011;39844;52.496;13.482;2022-07-23T08:41:08;2.23;;;1.80;;
53931;SDS011;39844;52.496;13.482;2022-07-23T08:43:34;2.10;;;2.00;;
53931;SDS011;39844;52.496;13.482;2022-07-23T08:46:01;3.17;;;2.40;;
53931;SDS011;39844;52.496;13.482;2022-07-23T08:48:31;2.33;;;2.10;;
53931;SDS011;39844;52.496;13.482;2022-07-23T08:50:59;1.90;;;1.80;;
53931;SDS011;39844;52.496;13.482;2022-07-23T08:53:27;2.00;;;1.87;;
53931;SDS011;39844;52.496;13.482;2022-07-23T08:55:55;2.77;;;1.83;;
53931;SDS011;39844;52.496;13.482;2022-07-23T08:58:22;1.73;;;1.67;;
53931;SDS011;39844;52.496;13.482;2022-07-23T09:00:49;1.83;;;1.73;;
53931;SDS011;39844;52.496;13.482;2022-07-23T09:03:16;2.20;;;1.60;;
53931;SDS011;39844;52.496;13.482;2022-07-23T09:05:46;3.73;;;1.90;;
53931;SDS011;39844;52.496;13.482;2022-07-23T09:08:16;1.90;;;1.73;;
53931;SDS011;39844;52.496;13.482;2022-07-23T09:10:50;2.27;;;1.60;;
53931;SDS011;39844;52.496;13.482;2022-07-23T09:15:51;2.00;;;1.80;;
53931;SDS011;39844;52.496;13.482;2022-07-23T09:18:18;2.83;;;1.80;;
53931;SDS011;39844;52.496;13.482;2022-07-23T09:20:43;4.23;;;2.10;;
53931;SDS011;39844;52.496;13.482;2022-07-23T09:23:09;3.30;;;2.30;;
53931;SDS011;39844;52.496;13.482;2022-07-23T09:25:35;2.00;;;1.80;;
53931;SDS011;39844;52.496;13.482;2022-07-23T09:28:00;2.97;;;1.90;;
53931;SDS011;39844;52.496;13.482;2022-07-23T09:30:30;3.63;;;1.53;;
53931;SDS011;39844;52.496;13.482;2022-07-23T09:33:17;2.00;;;1.80;;
53931;SDS011;39844;52.496;13.482;2022-07-23T09:35:51;1.80;;;1.70;;
53931;SDS011;39844;52.496;13.482;2022-07-23T09:38:19;1.93;;;1.60;;
53931;SDS011;39844;52.496;13.482;2022-07-23T09:40:47;2.17;;;2.03;;
53931;SDS011;39844;52.496;13.482;2022-07-23T09:43:30;5.40;;;2.17;;
53931;SDS011;39844;52.496;13.482;2022-07-23T09:46:16;3.90;;;2.10;;
53931;SDS011;39844;52.496;13.482;2022-07-23T09:48:46;2.83;;;2.15;;
53931;SDS011;39844;52.496;13.482;2022-07-23T09:51:12;4.40;;;2.38;;
53931;SDS011;39844;52.496;13.482;2022-07-23T09:53:44;4.27;;;2.20;;
53931;SDS011;39844;52.496;13.482;2022-07-23T09:56:09;5.93;;;2.00;;
53931;SDS011;39844;52.496;13.482;2022-07-23T09:58:39;2.13;;;2.03;;
53931;SDS011;39844;52.496;13.482;2022-07-23T10:01:25;4.40;;;1.92;;
53931;SDS011;39844;52.496;13.482;2022-07-23T10:03:52;6.47;;;2.13;;
53931;SDS011;39844;52.496;13.482;2022-07-23T10:06:17;12.98;;;3.47;;
53931;SDS011;39844;52.496;13.482;2022-07-23T10:08:43;5.50;;;2.10;;
53931;SDS011;39844;52.496;13.482;2022-07-23T10:11:12;5.40;;;2.67;;
53931;SDS011;39844;52.496;13.482;2022-07-23T10:13:39;4.00;;;2.80;;
53931;SDS011;39844;52.496;13.482;2022-07-23T10:16:22;2.65;;;2.30;;
53931;SDS011;39844;52.496;13.482;2022-07-23T10:18:47;2.88;;;2.10;;
53931;SDS011;39844;52.496;13.482;2022-07-23T10:21:16;3.03;;;1.90;;
53931;SDS011;39844;52.496;13.482;2022-07-23T10:23:58;2.55;;;2.10;;
53931;SDS011;39844;52.496;13.482;2022-07-23T10:26:50;4.28;;;2.50;;
53931;SDS011;39844;52.496;13.482;2022-07-23T10:34:18;1.95;;;1.83;;
53931;SDS011;39844;52.496;13.482;2022-07-23T10:37:06;2.72;;;2.20;;
53931;SDS011;39844;52.496;13.482;2022-07-23T10:39:34;3.25;;;2.03;;
53931;SDS011;39844;52.496;13.482;2022-07-23T10:42:13;2.92;;;1.83;;
53931;SDS011;39844;52.496;13.482;2022-07-23T10:44:43;3.90;;;2.17;;
53931;SDS011;39844;52.496;13.482;2022-07-23T10:47:11;2.95;;;1.90;;
53931;SDS011;39844;52.496;13.482;2022-07-23T10:49:36;1.80;;;1.70;;
53931;SDS011;39844;52.496;13.482;2022-07-23T10:52:24;4.10;;;1.95;;
53931;SDS011;39844;52.496;13.482;2022-07-23T10:54:55;3.00;;;1.85;;
53931;SDS011;39844;52.496;13.482;2022-07-23T10:57:50;3.85;;;2.00;;
53931;SDS011;39844;52.496;13.482;2022-07-23T11:00:22;1.85;;;1.75;;
53931;SDS011;39844;52.496;13.482;2022-07-23T11:02:50;1.80;;;1.70;;
53931;SDS011;39844;52.496;13.482;2022-07-23T11:05:18;2.95;;;1.90;;
53931;SDS011;39844;52.496;13.482;2022-07-23T11:10:36;2.13;;;2.03;;
53931;SDS011;39844;52.496;13.482;2022-07-23T11:21:39;7.25;;;2.30;;
53931;SDS011;39844;52.496;13.482;2022-07-23T11:37:15;2.80;;;1.90;;
53931;SDS011;39844;52.496;13.482;2022-07-23T11:39:54;3.08;;;1.83;;
53931;SDS011;39844;52.496;13.482;2022-07-23T11:42:20;2.20;;;2.00;;
53931;SDS011;39844;52.496;13.482;2022-07-23T11:44:48;3.00;;;2.03;;
53931;SDS011;39844;52.496;13.482;2022-07-23T11:47:13;2.28;;;1.90;;
53931;SDS011;39844;52.496;13.482;2022-07-23T11:49:39;1.80;;;1.70;;
53931;SDS011;39844;52.496;13.482;2022-07-23T11:52:18;2.20;;;2.00;;
53931;SDS011;39844;52.496;13.482;2022-07-23T11:54:57;2.03;;;1.60;;
53931;SDS011;39844;52.496;13.482;2022-07-23T11:57:29;2.33;;;2.03;;
53931;SDS011;39844;52.496;13.482;2022-07-23T11:59:58;1.80;;;1.70;;
53931;SDS011;39844;52.496;13.482;2022-07-23T12:02:28;2.17;;;1.98;;
53931;SDS011;39844;52.496;13.482;2022-07-23T12:04:53;2.40;;;1.90;;
53931;SDS011;39844;52.496;13.482;2022-07-23T12:09:58;2.72;;;1.98;;
53931;SDS011;39844;52.496;13.482;2022-07-23T12:12:37;1.85;;;1.75;;
53931;SDS011;39844;52.496;13.482;2022-07-23T12:15:03;2.13;;;1.80;;
53931;SDS011;39844;52.496;13.482;2022-07-23T12:17:31;2.97;;;1.98;;
53931;SDS011;39844;52.496;13.482;2022-07-23T12:19:58;2.30;;;2.15;;
53931;SDS011;39844;52.496;13.482;2022-07-23T12:22:25;2.60;;;1.90;;
53931;SDS011;39844;52.496;13.482;2022-07-23T12:25:02;2.20;;;1.98;;
53931;SDS011;39844;52.496;13.482;2022-07-23T12:27:30;2.58;;;1.80;;
53931;SDS011;39844;52.496;13.482;2022-07-23T12:29:55;2.45;;;1.98;;
53931;SDS011;39844;52.496;13.482;2022-07-23T12:32:28;2.08;;;1.88;;
53931;SDS011;39844;52.496;13.482;2022-07-23T12:35:06;2.40;;;1.70;;
53931;SDS011;39844;52.496;13.482;2022-07-23T12:37:37;1.63;;;1.52;;
53931;SDS011;39844;52.496;13.482;2022-07-23T12:43:05;2.15;;;2.05;;
53931;SDS011;39844;52.496;13.482;2022-07-23T12:45:43;3.55;;;2.30;;
53931;SDS011;39844;52.496;13.482;2022-07-23T12:48:24;2.35;;;2.15;;
53931;SDS011;39844;52.496;13.482;2022-07-23T12:50:54;3.05;;;2.00;;
53931;SDS011;39844;52.496;13.482;2022-07-23T12:53:31;4.40;;;1.75;;
53931;SDS011;39844;52.496;13.482;2022-07-23T12:56:09;4.38;;;2.20;;
53931;SDS011;39844;52.496;13.482;2022-07-23T13:01:32;2.50;;;2.30;;
53931;SDS011;39844;52.496;13.482;2022-07-23T13:06:26;2.33;;;1.97;;
53931;SDS011;39844;52.496;13.482;2022-07-23T13:08:52;2.35;;;1.85;;
53931;SDS011;39844;52.496;13.482;2022-07-23T13:11:18;4.05;;;2.42;;
53931;SDS011;39844;52.496;13.482;2022-07-23T13:13:43;11.13;;;2.20;;
53931;SDS011;39844;52.496;13.482;2022-07-23T13:16:08;2.40;;;2.20;;
53931;SDS011;39844;52.496;13.482;2022-07-23T13:18:34;2.35;;;1.80;;
53931;SDS011;39844;52.496;13.482;2022-07-23T13:20:59;2.40;;;2.20;;
53931;SDS011;39844;52.496;13.482;2022-07-23T13:23:25;2.17;;;1.98;;
53931;SDS011;39844;52.496;13.482;2022-07-23T13:25:51;11.35;;;4.32;;
53931;SDS011;39844;52.496;13.482;2022-07-23T13:28:17;3.35;;;2.28;;
53931;SDS011;39844;52.496;13.482;2022-07-23T13:30:44;3.05;;;2.30;;
53931;SDS011;39844;52.496;13.482;2022-07-23T13:33:10;3.70;;;2.30;;
53931;SDS011;39844;52.496;13.482;2022-07-23T13:35:36;4.10;;;2.15;;
53931;SDS011;39844;52.496;13.482;2022-07-23T13:38:05;2.85;;;2.13;;
53931;SDS011;39844;52.496;13.482;2022-07-23T13:40:35;1.90;;;1.80;;
53931;SDS011;39844;52.496;13.482;2022-07-23T13:43:03;3.97;;;2.30;;
53931;SDS011;39844;52.496;13.482;2022-07-23T13:45:30;2.72;;;1.85;;
53931;SDS011;39844;52.496;13.482;2022-07-23T13:47:56;3.47;;;2.10;;
53931;SDS011;39844;52.496;13.482;2022-07-23T13:50:21;2.42;;;2.08;;
53931;SDS011;39844;52.496;13.482;2022-07-23T13:52:46;4.55;;;2.10;;
53931;SDS011;39844;52.496;13.482;2022-07-23T13:55:12;2.60;;;2.10;;
53931;SDS011;39844;52.496;13.482;2022-07-23T13:57:37;1.90;;;1.80;;
53931;SDS011;39844;52.496;13.482;2022-07-23T14:00:03;2.00;;;1.63;;
53931;SDS011;39844;52.496;13.482;2022-07-23T14:02:30;2.65;;;2.00;;
53931;SDS011;39844;52.496;13.482;2022-07-23T14:04:55;2.47;;;2.30;;
53931;SDS011;39844;52.496;13.482;2022-07-23T14:07:22;8.10;;;2.03;;
53931;SDS011;39844;52.496;13.482;2022-07-23T14:09:47;2.10;;;2.00;;
53931;SDS011;39844;52.496;13.482;2022-07-23T14:12:12;2.25;;;2.05;;
53931;SDS011;39844;52.496;13.482;2022-07-23T14:14:38;2.03;;;1.80;;
53931;SDS011;39844;52.496;13.482;2022-07-23T14:17:03;3.67;;;1.98;;
53931;SDS011;39844;52.496;13.482;2022-07-23T14:19:29;1.80;;;1.75;;
53931;SDS011;39844;52.496;13.482;2022-07-23T14:21:54;2.10;;;1.85;;
53931;SDS011;39844;52.496;13.482;2022-07-23T14:24:19;2.10;;;1.90;;
53931;SDS011;39844;52.496;13.482;2022-07-23T14:26:45;2.03;;;1.92;;
53931;SDS011;39844;52.496;13.482;2022-07-23T14:29:11;2.03;;;1.92;;
53931;SDS011;39844;52.496;13.482;2022-07-23T14:31:36;2.25;;;1.90;;
53931;SDS011;39844;52.496;13.482;2022-07-23T14:34:02;2.78;;;1.98;;
53931;SDS011;39844;52.496;13.482;2022-07-23T14:36:27;2.20;;;1.83;;
53931;SDS011;39844;52.496;13.482;2022-07-23T14:38:52;3.35;;;1.65;;
53931;SDS011;39844;52.496;13.482;2022-07-23T14:41:18;1.90;;;1.80;;
53931;SDS011;39844;52.496;13.482;2022-07-23T14:43:43;2.33;;;1.95;;
53931;SDS011;39844;52.496;13.482;2022-07-23T14:46:09;2.00;;;1.90;;
53931;SDS011;39844;52.496;13.482;2022-07-23T14:48:34;2.75;;;1.80;;
53931;SDS011;39844;52.496;13.482;2022-07-23T14:51:02;1.80;;;1.70;;
53931;SDS011;39844;52.496;13.482;2022-07-23T14:53:28;2.20;;;1.52;;
53931;SDS011;39844;52.496;13.482;2022-07-23T14:55:53;3.65;;;1.88;;
53931;SDS011;39844;52.496;13.482;2022-07-23T14:58:19;2.63;;;1.73;;
53931;SDS011;39844;52.496;13.482;2022-07-23T15:00:45;2.40;;;2.03;;
53931;SDS011;39844;52.496;13.482;2022-07-23T15:03:10;1.42;;;1.42;;
53931;SDS011;39844;52.496;13.482;2022-07-23T15:05:35;2.35;;;1.30;;
53931;SDS011;39844;52.496;13.482;2022-07-23T15:08:01;1.10;;;1.10;;
53931;SDS011;39844;52.496;13.482;2022-07-23T15:10:26;1.70;;;1.60;;
53931;SDS011;39844;52.496;13.482;2022-07-23T15:12:51;1.40;;;1.30;;
53931;SDS011;39844;52.496;13.482;2022-07-23T15:15:17;1.63;;;1.52;;